Time;durP1;ratioP1;P1;durP2;ratioP2;P2;SDS_P1;SDS_P2;PMS_P1;PMS_P2;Temp;Humidity;BMP_temperature;BMP_pressure;BME280_temperature;BME280_humidity;BME280_pressure;Samples;Min_cycle;Max_cycle;Signal;HPM_P1;HPM_P2
2021/12/24 00:00:06;;;;;;;50.25;18.42;;;;;;;;;;5034962;28;20043;-57
2021/12/24 00:02:33;;;;;;;39.90;16.42;;;;;;;;;;5034341;28;20588;-57
2021/12/24 00:04:59;;;;;;;40.72;17.85;;;;;;;;;;5035018;28;20025;-53
2021/12/24 00:07:25;;;;;;;37.67;16.83;;;;;;;;;;5034836;28;20104;-56
2021/12/24 00:09:50;;;;;;;47.90;18.42;;;;;;;;;;5034405;28;20025;-57
2021/12/24 00:12:19;;;;;;;40.38;18.80;;;;;;;;;;5033649;28;20021;-57
2021/12/24 00:14:51;;;;;;;39.88;16.67;;;;;;;;;;5034417;28;20064;-54
2021/12/24 00:17:23;;;;;;;42.20;17.70;;;;;;;;;;5034852;28;20092;-51
2021/12/24 00:23:04;;;;;;;49.50;17.83;;;;;;;;;;5034045;28;20091;-52
2021/12/24 00:36:15;;;;;;;36.42;16.30;;;;;;;;;;5032983;28;20056;-57
2021/12/24 00:38:41;;;;;;;50.95;19.75;;;;;;;;;;5033575;28;20030;-57
2021/12/24 00:41:08;;;;;;;42.45;17.42;;;;;;;;;;5033988;28;20481;-57
2021/12/24 00:43:34;;;;;;;45.55;17.85;;;;;;;;;;5034141;28;20041;-56
2021/12/24 00:45:59;;;;;;;40.45;16.38;;;;;;;;;;5034149;28;20033;-57
2021/12/24 00:48:25;;;;;;;44.63;17.88;;;;;;;;;;5033668;28;20033;-56
2021/12/24 00:51:18;;;;;;;43.72;17.75;;;;;;;;;;5026527;28;20112;-55
2021/12/24 00:56:08;;;;;;;44.33;18.40;;;;;;;;;;5034521;28;20453;-56
2021/12/24 00:58:34;;;;;;;43.17;17.38;;;;;;;;;;5029395;28;20037;-57
2021/12/24 01:01:01;;;;;;;40.30;16.70;;;;;;;;;;5026466;28;20091;-56
2021/12/24 01:03:27;;;;;;;47.63;17.77;;;;;;;;;;5033747;28;20025;-57
2021/12/24 01:05:53;;;;;;;50.25;18.92;;;;;;;;;;5032615;28;20109;-57
2021/12/24 01:08:19;;;;;;;43.28;16.52;;;;;;;;;;5027453;28;20040;-57
2021/12/24 01:10:53;;;;;;;38.90;18.60;;;;;;;;;;5031659;28;20033;-57
2021/12/24 01:13:19;;;;;;;46.65;17.42;;;;;;;;;;5033598;28;20037;-55
2021/12/24 01:15:57;;;;;;;36.85;17.20;;;;;;;;;;5033412;28;20476;-55
2021/12/24 01:18:45;;;;;;;42.20;18.60;;;;;;;;;;5032199;28;20025;-55
2021/12/24 01:21:42;;;;;;;43.38;16.55;;;;;;;;;;5026019;28;20057;-55
2021/12/24 01:24:14;;;;;;;41.28;16.17;;;;;;;;;;5034191;28;21661;-57
2021/12/24 01:26:54;;;;;;;38.35;15.85;;;;;;;;;;5023909;28;20033;-57
2021/12/24 01:29:53;;;;;;;35.70;16.13;;;;;;;;;;5033866;28;20046;-55
2021/12/24 01:37:53;;;;;;;31.13;14.10;;;;;;;;;;5034172;28;20056;-57
2021/12/24 01:42:40;;;;;;;36.08;16.05;;;;;;;;;;5035172;28;20043;-53
2021/12/24 01:43:28;;;;;;;33.15;13.70;;;;;;;;;;5029512;28;20041;-54
2021/12/24 01:45:56;;;;;;;31.42;13.90;;;;;;;;;;5037618;28;20067;-54
2021/12/24 01:48:25;;;;;;;32.42;14.60;;;;;;;;;;5028053;28;20125;-54
2021/12/24 01:50:52;;;;;;;32.67;14.20;;;;;;;;;;5036946;28;20035;-57
2021/12/24 01:53:20;;;;;;;33.40;13.57;;;;;;;;;;5032342;28;20526;-57
2021/12/24 01:55:50;;;;;;;29.05;14.27;;;;;;;;;;5028542;28;20018;-57
2021/12/24 01:58:25;;;;;;;38.38;14.77;;;;;;;;;;5028954;28;20030;-57
2021/12/24 02:00:53;;;;;;;31.77;14.32;;;;;;;;;;5028920;28;20030;-52
2021/12/24 02:03:19;;;;;;;32.55;14.18;;;;;;;;;;5028913;28;20140;-57
2021/12/24 02:05:45;;;;;;;27.80;12.68;;;;;;;;;;5029231;28;20061;-54
2021/12/24 02:08:12;;;;;;;29.25;13.05;;;;;;;;;;5028826;28;20029;-52
2021/12/24 02:10:39;;;;;;;32.00;12.85;;;;;;;;;;5029523;28;20045;-54
2021/12/24 02:13:05;;;;;;;28.88;13.30;;;;;;;;;;5029573;28;20048;-57
2021/12/24 02:15:44;;;;;;;28.52;12.40;;;;;;;;;;5030582;28;20484;-56
2021/12/24 02:28:54;;;;;;;24.17;11.77;;;;;;;;;;5022395;28;20060;-56
2021/12/24 02:31:21;;;;;;;28.63;12.07;;;;;;;;;;5023841;28;20473;-56
2021/12/24 02:33:47;;;;;;;23.40;11.48;;;;;;;;;;5029449;28;20022;-56
2021/12/24 02:36:13;;;;;;;24.80;11.52;;;;;;;;;;5029841;28;20508;-53
2021/12/24 02:38:40;;;;;;;21.52;10.88;;;;;;;;;;5024016;28;20034;-53
2021/12/24 02:41:07;;;;;;;24.50;11.23;;;;;;;;;;5024432;28;20032;-53
2021/12/24 02:43:33;;;;;;;24.02;11.18;;;;;;;;;;5031670;28;20033;-55
2021/12/24 02:46:05;;;;;;;25.23;12.10;;;;;;;;;;5028100;28;20057;-55
2021/12/24 02:49:17;;;;;;;23.40;11.75;;;;;;;;;;5024479;28;20052;-56
2021/12/24 02:54:06;;;;;;;22.95;10.65;;;;;;;;;;5025336;28;20535;-53
2021/12/24 02:56:34;;;;;;;22.73;10.35;;;;;;;;;;5028722;28;20381;-56
2021/12/24 02:59:02;;;;;;;27.20;12.35;;;;;;;;;;5023343;28;20028;-54
2021/12/24 03:01:30;;;;;;;21.98;10.65;;;;;;;;;;5027806;28;20369;-55
2021/12/24 03:03:57;;;;;;;19.90;10.55;;;;;;;;;;5029787;28;20033;-58
2021/12/24 03:06:27;;;;;;;22.65;10.93;;;;;;;;;;5031242;28;20552;-58
2021/12/24 03:08:53;;;;;;;22.58;10.38;;;;;;;;;;5029083;28;20030;-58
2021/12/24 03:11:19;;;;;;;21.60;9.82;;;;;;;;;;5031153;28;20037;-56
2021/12/24 03:13:45;;;;;;;22.30;9.98;;;;;;;;;;5028799;28;20068;-58
2021/12/24 03:16:11;;;;;;;21.00;9.75;;;;;;;;;;5031717;28;20108;-57
2021/12/24 03:18:40;;;;;;;22.60;10.18;;;;;;;;;;5030183;28;20026;-53
2021/12/24 03:21:12;;;;;;;24.38;10.63;;;;;;;;;;5041110;28;20485;-57
2021/12/24 03:23:42;;;;;;;20.55;9.60;;;;;;;;;;5026674;28;20022;-58
2021/12/24 03:26:09;;;;;;;24.75;10.50;;;;;;;;;;5039539;28;20052;-57
2021/12/24 03:28:35;;;;;;;22.58;10.57;;;;;;;;;;5029402;28;20033;-54
2021/12/24 03:31:02;;;;;;;26.25;10.10;;;;;;;;;;5032730;28;20033;-55
2021/12/24 03:33:28;;;;;;;22.75;10.43;;;;;;;;;;5037564;28;20022;-56
2021/12/24 03:35:54;;;;;;;27.02;12.07;;;;;;;;;;5036707;28;20053;-56
2021/12/24 03:38:20;;;;;;;22.17;10.30;;;;;;;;;;5029479;28;20044;-54
2021/12/24 03:40:46;;;;;;;21.13;10.18;;;;;;;;;;5038962;28;20025;-57
2021/12/24 03:43:12;;;;;;;24.10;10.68;;;;;;;;;;5033901;28;20026;-54
2021/12/24 03:46:15;;;;;;;22.10;9.98;;;;;;;;;;5031628;28;20032;-56
2021/12/24 03:48:54;;;;;;;22.05;9.65;;;;;;;;;;5026707;28;20042;-58
2021/12/24 03:51:30;;;;;;;26.73;9.93;;;;;;;;;;5022162;28;20018;-55
2021/12/24 03:56:42;;;;;;;20.23;9.75;;;;;;;;;;5028353;28;20111;-55
2021/12/24 03:59:08;;;;;;;20.27;9.50;;;;;;;;;;5028076;28;20104;-55
2021/12/24 04:01:34;;;;;;;22.58;9.75;;;;;;;;;;5036477;28;20465;-57
2021/12/24 04:04:00;;;;;;;20.38;9.05;;;;;;;;;;5028304;28;20037;-57
2021/12/24 04:06:27;;;;;;;22.55;10.13;;;;;;;;;;5037729;28;20110;-58
2021/12/24 04:08:53;;;;;;;18.88;9.48;;;;;;;;;;5036777;28;20424;-56
2021/12/24 04:11:19;;;;;;;19.58;9.38;;;;;;;;;;5019158;28;20025;-56
2021/12/24 04:13:45;;;;;;;17.50;8.63;;;;;;;;;;5029337;28;20117;-56
2021/12/24 04:16:11;;;;;;;22.85;10.23;;;;;;;;;;5039006;28;20410;-55
2021/12/24 04:18:48;;;;;;;20.48;8.82;;;;;;;;;;5031672;28;20364;-55
2021/12/24 04:26:43;;;;;;;19.38;9.05;;;;;;;;;;5035295;28;20428;-56
2021/12/24 04:29:10;;;;;;;24.42;9.35;;;;;;;;;;5033266;28;20091;-57
2021/12/24 04:31:45;;;;;;;19.42;9.02;;;;;;;;;;5036225;28;20460;-54
2021/12/24 04:34:13;;;;;;;21.98;8.82;;;;;;;;;;5035472;28;20030;-58
2021/12/24 04:36:47;;;;;;;22.92;9.88;;;;;;;;;;5028437;28;20033;-54
2021/12/24 04:53:26;;;;;;;16.95;7.25;;;;;;;;;;5031444;28;20084;-57
2021/12/24 05:03:59;;;;;;;15.88;7.25;;;;;;;;;;5015079;28;20038;-56
2021/12/24 05:08:54;;;;;;;13.52;6.30;;;;;;;;;;5024497;28;20108;-58
2021/12/24 05:11:20;;;;;;;11.52;5.68;;;;;;;;;;5024892;28;20029;-57
2021/12/24 05:13:47;;;;;;;13.65;6.35;;;;;;;;;;5025036;28;20499;-53
2021/12/24 05:21:42;;;;;;;14.02;5.13;;;;;;;;;;5029217;28;20095;-52
2021/12/24 05:24:08;;;;;;;10.32;5.20;;;;;;;;;;5026219;28;20046;-57
2021/12/24 05:26:35;;;;;;;9.35;4.75;;;;;;;;;;5031073;28;20029;-52
2021/12/24 05:29:02;;;;;;;7.60;4.30;;;;;;;;;;5029123;28;20029;-56
2021/12/24 05:31:28;;;;;;;7.88;4.03;;;;;;;;;;5027406;28;20139;-57
2021/12/24 05:33:54;;;;;;;10.40;4.20;;;;;;;;;;5029607;28;20029;-54
2021/12/24 05:36:20;;;;;;;6.55;3.38;;;;;;;;;;5030965;28;20040;-52
2021/12/24 05:38:46;;;;;;;6.07;3.30;;;;;;;;;;5030209;28;20056;-54
2021/12/24 05:41:13;;;;;;;7.55;3.97;;;;;;;;;;5031479;28;20061;-57
2021/12/24 05:43:39;;;;;;;5.93;3.30;;;;;;;;;;5028249;28;20025;-56
2021/12/24 05:46:05;;;;;;;7.38;3.60;;;;;;;;;;5028292;28;20075;-56
2021/12/24 05:48:31;;;;;;;5.10;3.28;;;;;;;;;;5028574;28;20040;-57
2021/12/24 05:50:57;;;;;;;5.93;3.50;;;;;;;;;;5030782;28;20025;-57
2021/12/24 05:53:24;;;;;;;5.78;3.08;;;;;;;;;;5029097;28;20026;-58
2021/12/24 05:55:50;;;;;;;5.38;2.65;;;;;;;;;;5029341;28;20026;-58
2021/12/24 05:58:16;;;;;;;5.18;2.97;;;;;;;;;;5030781;28;20067;-58
2021/12/24 06:00:43;;;;;;;5.22;2.70;;;;;;;;;;5032132;28;20029;-58
2021/12/24 06:03:09;;;;;;;4.65;2.83;;;;;;;;;;5022911;28;20125;-58
2021/12/24 06:05:35;;;;;;;5.18;2.60;;;;;;;;;;5022329;28;20473;-55
2021/12/24 06:08:02;;;;;;;3.95;2.53;;;;;;;;;;5025991;28;20029;-58
2021/12/24 06:10:28;;;;;;;3.78;2.22;;;;;;;;;;5028629;28;20463;-51
2021/12/24 06:12:54;;;;;;;3.22;2.03;;;;;;;;;;5031893;28;20047;-56
2021/12/24 06:15:23;;;;;;;6.38;2.55;;;;;;;;;;5027969;28;20076;-58
2021/12/24 06:17:52;;;;;;;3.40;2.35;;;;;;;;;;5030844;28;20030;-57
2021/12/24 06:20:18;;;;;;;3.72;2.38;;;;;;;;;;5031619;28;20025;-57
2021/12/24 06:22:44;;;;;;;4.93;2.53;;;;;;;;;;5020035;28;20097;-53
2021/12/24 06:25:10;;;;;;;4.15;2.38;;;;;;;;;;5028482;28;20033;-55
2021/12/24 06:27:37;;;;;;;4.88;2.47;;;;;;;;;;5024947;28;20351;-50
2021/12/24 06:30:04;;;;;;;4.03;2.22;;;;;;;;;;5021243;28;20122;-56
2021/12/24 06:32:30;;;;;;;4.03;2.03;;;;;;;;;;5023739;28;20050;-53
2021/12/24 06:34:56;;;;;;;3.95;2.33;;;;;;;;;;5019811;28;20373;-55
2021/12/24 06:37:22;;;;;;;3.92;2.42;;;;;;;;;;5023128;28;20473;-57
2021/12/24 06:39:48;;;;;;;4.50;2.30;;;;;;;;;;5030391;28;20022;-57
2021/12/24 06:42:14;;;;;;;3.05;2.42;;;;;;;;;;5016979;28;20112;-57
2021/12/24 06:44:40;;;;;;;3.97;2.50;;;;;;;;;;5027552;28;20440;-57
2021/12/24 06:47:06;;;;;;;3.55;2.35;;;;;;;;;;5027719;28;20026;-56
2021/12/24 06:49:33;;;;;;;3.13;2.13;;;;;;;;;;5026137;28;20033;-56
2021/12/24 06:51:59;;;;;;;3.60;2.20;;;;;;;;;;5031074;28;20025;-57
2021/12/24 06:54:25;;;;;;;3.45;2.10;;;;;;;;;;5033947;28;20036;-53
2021/12/24 06:56:51;;;;;;;3.47;2.22;;;;;;;;;;5035383;28;20021;-55
2021/12/24 06:59:17;;;;;;;3.15;2.03;;;;;;;;;;5026493;28;20112;-52
2021/12/24 07:01:43;;;;;;;3.78;2.17;;;;;;;;;;5025415;28;20030;-56
2021/12/24 07:04:10;;;;;;;3.22;2.00;;;;;;;;;;5030425;28;20029;-55
2021/12/24 07:06:37;;;;;;;3.83;1.90;;;;;;;;;;5035943;28;20052;-55
2021/12/24 07:09:03;;;;;;;3.42;2.30;;;;;;;;;;5031676;28;20853;-56
2021/12/24 07:11:29;;;;;;;3.38;1.88;;;;;;;;;;5032676;28;20018;-56
2021/12/24 07:13:55;;;;;;;3.30;2.15;;;;;;;;;;5031790;28;20026;-57
2021/12/24 07:16:21;;;;;;;2.50;1.80;;;;;;;;;;5023666;28;20470;-57
2021/12/24 07:18:47;;;;;;;2.58;1.70;;;;;;;;;;5018799;28;20065;-56
2021/12/24 07:21:13;;;;;;;2.88;1.95;;;;;;;;;;5028238;28;20033;-55
2021/12/24 07:23:39;;;;;;;2.75;1.70;;;;;;;;;;5025857;28;20336;-57
2021/12/24 07:26:05;;;;;;;4.05;2.08;;;;;;;;;;5029493;28;20390;-57
2021/12/24 07:28:31;;;;;;;1.92;1.67;;;;;;;;;;5024000;28;20035;-52
2021/12/24 07:30:57;;;;;;;2.85;1.90;;;;;;;;;;5027464;28;20026;-55
2021/12/24 07:33:23;;;;;;;2.88;1.70;;;;;;;;;;5022146;28;20144;-57
2021/12/24 07:35:49;;;;;;;2.33;1.48;;;;;;;;;;5025729;28;20079;-55
2021/12/24 07:38:15;;;;;;;2.20;1.25;;;;;;;;;;5018078;28;20025;-57
2021/12/24 07:40:42;;;;;;;2.13;1.50;;;;;;;;;;5031169;28;20021;-57
2021/12/24 07:43:08;;;;;;;4.13;1.67;;;;;;;;;;5026118;28;20026;-56
2021/12/24 07:45:34;;;;;;;2.22;1.40;;;;;;;;;;5026912;28;20041;-57
2021/12/24 07:48:11;;;;;;;2.28;1.38;;;;;;;;;;5029354;28;20091;-55
2021/12/24 07:53:07;;;;;;;2.60;1.70;;;;;;;;;;5029896;28;20029;-57
2021/12/24 07:55:34;;;;;;;2.67;1.67;;;;;;;;;;5023192;28;20419;-57
2021/12/24 07:58:00;;;;;;;2.85;1.80;;;;;;;;;;5024280;28;20091;-56
2021/12/24 08:00:27;;;;;;;10.63;1.50;;;;;;;;;;5035132;28;20473;-56
2021/12/24 08:02:54;;;;;;;2.08;1.63;;;;;;;;;;5021417;28;20033;-57
2021/12/24 08:05:23;;;;;;;3.17;1.75;;;;;;;;;;5025558;28;20042;-56
2021/12/24 08:07:49;;;;;;;2.10;1.40;;;;;;;;;;5028126;28;20026;-55
2021/12/24 08:10:15;;;;;;;1.70;1.30;;;;;;;;;;5025633;28;20064;-57
2021/12/24 08:12:41;;;;;;;4.55;1.75;;;;;;;;;;5029435;28;20057;-53
2021/12/24 08:15:08;;;;;;;2.17;1.65;;;;;;;;;;5032697;28;20021;-57
2021/12/24 08:17:34;;;;;;;2.75;1.48;;;;;;;;;;5032800;28;20033;-55
2021/12/24 08:20:00;;;;;;;2.20;1.50;;;;;;;;;;5028600;28;20116;-55
2021/12/24 08:22:26;;;;;;;2.13;1.40;;;;;;;;;;5036084;28;20076;-55
2021/12/24 08:24:52;;;;;;;3.40;1.50;;;;;;;;;;5032440;28;20445;-55
2021/12/24 08:27:18;;;;;;;1.90;1.23;;;;;;;;;;5035284;28;20048;-53
2021/12/24 08:29:44;;;;;;;1.92;1.40;;;;;;;;;;5030517;28;20025;-55
2021/12/24 08:32:10;;;;;;;1.23;1.10;;;;;;;;;;5027376;28;20030;-54
2021/12/24 08:34:38;;;;;;;2.13;1.40;;;;;;;;;;5033293;28;20119;-55
2021/12/24 08:37:05;;;;;;;2.20;1.42;;;;;;;;;;5036248;28;20223;-56
2021/12/24 08:39:31;;;;;;;2.83;1.88;;;;;;;;;;5027845;28;20037;-51
2021/12/24 08:41:58;;;;;;;1.50;1.38;;;;;;;;;;5033130;28;20347;-57
2021/12/24 08:44:25;;;;;;;3.30;1.20;;;;;;;;;;5027803;28;20113;-57
2021/12/24 08:46:51;;;;;;;1.92;1.30;;;;;;;;;;5032663;28;20033;-57
2021/12/24 08:49:18;;;;;;;4.20;1.20;;;;;;;;;;5029099;28;20478;-57
2021/12/24 08:51:44;;;;;;;1.52;1.08;;;;;;;;;;5027941;28;20466;-56
2021/12/24 08:54:10;;;;;;;1.98;1.45;;;;;;;;;;5029530;28;20029;-54
2021/12/24 08:56:36;;;;;;;2.42;1.15;;;;;;;;;;5030030;28;20017;-56
2021/12/24 08:59:02;;;;;;;1.30;1.10;;;;;;;;;;5031388;28;20029;-52
2021/12/24 09:01:28;;;;;;;2.03;1.33;;;;;;;;;;5022727;28;20450;-57
2021/12/24 09:03:54;;;;;;;2.00;1.50;;;;;;;;;;5030678;28;20083;-54
2021/12/24 09:06:20;;;;;;;2.00;1.23;;;;;;;;;;5026053;28;20041;-54
2021/12/24 09:08:46;;;;;;;2.03;1.30;;;;;;;;;;5030915;28;20040;-54
2021/12/24 09:11:12;;;;;;;2.90;1.83;;;;;;;;;;5031097;28;21038;-54
2021/12/24 09:13:38;;;;;;;1.58;1.10;;;;;;;;;;5031210;28;20111;-57
2021/12/24 09:16:04;;;;;;;2.10;1.30;;;;;;;;;;5025223;28;20113;-55
2021/12/24 09:18:30;;;;;;;2.03;1.13;;;;;;;;;;5024274;28;20029;-56
2021/12/24 09:21:00;;;;;;;1.60;1.25;;;;;;;;;;5023189;28;20140;-56
2021/12/24 09:23:26;;;;;;;1.60;1.10;;;;;;;;;;5031015;28;20033;-57
2021/12/24 09:25:53;;;;;;;1.83;1.20;;;;;;;;;;5029142;28;20022;-54
2021/12/24 09:28:19;;;;;;;1.98;1.30;;;;;;;;;;5026403;28;20032;-56
2021/12/24 09:30:45;;;;;;;1.60;1.05;;;;;;;;;;5020851;28;20380;-57
2021/12/24 09:33:11;;;;;;;1.27;1.02;;;;;;;;;;5026016;28;20095;-55
2021/12/24 09:35:37;;;;;;;1.65;1.02;;;;;;;;;;5031881;28;20041;-56
2021/12/24 09:38:04;;;;;;;0.90;0.73;;;;;;;;;;5030883;28;20033;-57
2021/12/24 09:40:30;;;;;;;1.58;1.08;;;;;;;;;;5029599;28;20120;-54
2021/12/24 09:42:57;;;;;;;0.68;0.68;;;;;;;;;;5022593;28;20075;-57
2021/12/24 09:45:23;;;;;;;1.10;0.80;;;;;;;;;;5026802;28;20087;-55
2021/12/24 09:47:49;;;;;;;0.88;0.70;;;;;;;;;;5029945;28;20033;-55
2021/12/24 09:50:17;;;;;;;1.10;1.00;;;;;;;;;;5026608;28;20065;-57
2021/12/24 09:52:44;;;;;;;1.17;0.90;;;;;;;;;;5028499;28;20140;-55
2021/12/24 09:55:13;;;;;;;0.73;0.65;;;;;;;;;;5027168;28;20030;-57
2021/12/24 09:57:39;;;;;;;1.88;0.70;;;;;;;;;;5030909;28;20026;-52
2021/12/24 10:00:06;;;;;;;1.17;0.73;;;;;;;;;;5031402;28;20037;-55
2021/12/24 10:02:40;;;;;;;0.60;0.60;;;;;;;;;;5030900;28;20142;-57
2021/12/24 10:05:21;;;;;;;2.45;0.90;;;;;;;;;;5030543;28;20057;-56
2021/12/24 10:07:48;;;;;;;1.25;0.80;;;;;;;;;;5024271;28;20064;-54
2021/12/24 10:10:18;;;;;;;1.33;0.75;;;;;;;;;;5025535;28;20043;-57
2021/12/24 10:12:44;;;;;;;1.10;0.90;;;;;;;;;;5028468;28;20072;-53
2021/12/24 10:15:10;;;;;;;1.10;0.82;;;;;;;;;;5027827;28;20461;-54
2021/12/24 10:17:38;;;;;;;0.82;0.80;;;;;;;;;;5030961;28;20377;-56
2021/12/24 10:20:12;;;;;;;0.80;0.60;;;;;;;;;;5021248;28;20036;-57
2021/12/24 10:22:42;;;;;;;0.65;0.57;;;;;;;;;;5030851;28;20028;-53
2021/12/24 10:25:12;;;;;;;0.60;0.52;;;;;;;;;;5028732;28;20107;-57
2021/12/24 10:27:38;;;;;;;0.77;0.50;;;;;;;;;;5033628;28;20504;-55
2021/12/24 10:30:17;;;;;;;0.63;0.63;;;;;;;;;;5024351;28;20520;-54
2021/12/24 10:32:43;;;;;;;0.65;0.60;;;;;;;;;;5029003;28;20024;-56
2021/12/24 10:35:26;;;;;;;0.60;0.60;;;;;;;;;;5033217;28;20057;-56
2021/12/24 10:38:11;;;;;;;0.80;0.70;;;;;;;;;;5037113;28;20516;-54
2021/12/24 10:40:47;;;;;;;1.00;0.60;;;;;;;;;;5026937;28;20041;-54
2021/12/24 10:43:17;;;;;;;1.90;0.70;;;;;;;;;;5027463;28;20451;-53
2021/12/24 10:45:44;;;;;;;0.98;0.80;;;;;;;;;;5028477;28;20031;-56
2021/12/24 10:48:19;;;;;;;0.70;0.60;;;;;;;;;;5025145;28;20029;-54
2021/12/24 10:51:04;;;;;;;0.55;0.52;;;;;;;;;;5028154;28;20038;-52
2021/12/24 10:53:34;;;;;;;1.67;0.70;;;;;;;;;;5030039;28;20047;-56
2021/12/24 10:56:01;;;;;;;0.85;0.82;;;;;;;;;;5029756;28;20021;-54
2021/12/24 10:58:31;;;;;;;0.80;0.70;;;;;;;;;;5032608;28;20029;-56
2021/12/24 11:01:01;;;;;;;1.23;1.00;;;;;;;;;;5029532;28;20620;-54
2021/12/24 11:03:28;;;;;;;0.88;0.80;;;;;;;;;;5028909;28;20041;-54
2021/12/24 11:06:07;;;;;;;0.90;0.80;;;;;;;;;;5028297;28;20420;-55
2021/12/24 11:08:33;;;;;;;1.58;1.17;;;;;;;;;;5031780;28;20048;-55
2021/12/24 11:11:00;;;;;;;2.42;0.95;;;;;;;;;;5026615;28;20086;-57
2021/12/24 11:13:37;;;;;;;1.90;1.02;;;;;;;;;;5032923;28;20055;-56
2021/12/24 11:16:03;;;;;;;1.30;1.10;;;;;;;;;;5029329;28;20029;-52
2021/12/24 11:18:38;;;;;;;1.30;1.00;;;;;;;;;;5028200;28;20067;-57
2021/12/24 11:21:07;;;;;;;1.23;1.05;;;;;;;;;;5029371;28;20029;-55
2021/12/24 11:23:35;;;;;;;0.98;0.80;;;;;;;;;;5028348;28;20034;-57
2021/12/24 11:26:05;;;;;;;0.43;0.40;;;;;;;;;;5023609;28;20041;-53
2021/12/24 11:28:32;;;;;;;0.65;0.50;;;;;;;;;;5031935;28;20049;-57
2021/12/24 11:31:00;;;;;;;0.52;0.52;;;;;;;;;;5030187;28;20075;-52
2021/12/24 11:33:27;;;;;;;0.50;0.50;;;;;;;;;;5033724;28;20480;-53
2021/12/24 11:35:56;;;;;;;0.70;0.50;;;;;;;;;;5030491;28;20124;-52
2021/12/24 11:38:24;;;;;;;0.50;0.50;;;;;;;;;;5034035;28;20030;-54
2021/12/24 11:40:51;;;;;;;2.08;0.52;;;;;;;;;;5032583;28;20712;-53
2021/12/24 11:43:19;;;;;;;0.45;0.40;;;;;;;;;;5034241;28;20041;-53
2021/12/24 11:45:45;;;;;;;1.08;0.80;;;;;;;;;;5029193;28;20416;-51
2021/12/24 11:48:11;;;;;;;0.65;0.50;;;;;;;;;;5037955;28;20063;-56
2021/12/24 11:50:37;;;;;;;0.50;0.50;;;;;;;;;;5025696;28;20026;-52
2021/12/24 11:53:08;;;;;;;0.88;0.60;;;;;;;;;;5040235;28;20079;-54
2021/12/24 11:55:44;;;;;;;0.80;0.80;;;;;;;;;;5027312;28;20026;-54
2021/12/24 11:58:16;;;;;;;1.23;0.85;;;;;;;;;;5029434;28;20028;-53
2021/12/24 12:00:43;;;;;;;0.40;0.40;;;;;;;;;;5037048;28;20105;-55
2021/12/24 12:03:10;;;;;;;0.85;0.60;;;;;;;;;;5024783;28;20117;-52
2021/12/24 12:05:37;;;;;;;0.80;0.60;;;;;;;;;;5030941;28;20405;-56
2021/12/24 12:08:22;;;;;;;1.00;0.50;;;;;;;;;;5029931;28;20037;-50
2021/12/24 12:10:50;;;;;;;0.55;0.55;;;;;;;;;;5031765;28;20051;-55
2021/12/24 12:13:35;;;;;;;0.47;0.47;;;;;;;;;;5029259;28;20014;-55
2021/12/24 12:16:02;;;;;;;0.50;0.40;;;;;;;;;;5023235;28;20036;-54
2021/12/24 12:18:30;;;;;;;0.82;0.50;;;;;;;;;;5031201;28;20087;-53
2021/12/24 12:21:13;;;;;;;0.93;0.50;;;;;;;;;;5026734;28;20030;-54
2021/12/24 12:23:53;;;;;;;0.52;0.50;;;;;;;;;;5028936;28;20026;-53
2021/12/24 12:26:41;;;;;;;0.50;0.50;;;;;;;;;;5027704;28;20073;-52
2021/12/24 12:29:17;;;;;;;2.88;0.63;;;;;;;;;;5033469;28;20037;-54
2021/12/24 12:31:43;;;;;;;0.40;0.40;;;;;;;;;;5032078;28;20390;-54
2021/12/24 12:34:28;;;;;;;0.40;0.40;;;;;;;;;;5029374;28;20033;-54
2021/12/24 12:36:54;;;;;;;0.50;0.40;;;;;;;;;;5036030;28;20022;-51
2021/12/24 12:39:27;;;;;;;0.63;0.50;;;;;;;;;;5036006;28;20033;-52
2021/12/24 12:41:53;;;;;;;0.40;0.40;;;;;;;;;;5033654;28;20033;-54
2021/12/24 12:44:19;;;;;;;1.10;0.63;;;;;;;;;;5030217;28;20040;-50
2021/12/24 12:46:47;;;;;;;0.75;0.70;;;;;;;;;;5035172;28;20112;-53
2021/12/24 12:49:16;;;;;;;0.50;0.43;;;;;;;;;;5031095;28;20036;-54
2021/12/24 12:51:56;;;;;;;1.08;0.60;;;;;;;;;;5027786;28;20066;-52
2021/12/24 12:54:31;;;;;;;0.82;0.70;;;;;;;;;;5032894;28;20026;-51
2021/12/24 12:57:09;;;;;;;1.15;0.70;;;;;;;;;;5028038;28;20045;-52
2021/12/24 12:59:35;;;;;;;0.68;0.68;;;;;;;;;;5029571;28;20045;-54
2021/12/24 13:02:02;;;;;;;0.95;0.73;;;;;;;;;;5034708;28;20061;-51
2021/12/24 13:04:28;;;;;;;0.63;0.63;;;;;;;;;;5034853;28;20381;-53
2021/12/24 13:06:55;;;;;;;1.00;0.90;;;;;;;;;;5033510;28;20033;-54
2021/12/24 13:09:23;;;;;;;1.88;1.00;;;;;;;;;;5029777;28;20029;-54
2021/12/24 13:11:54;;;;;;;1.02;0.80;;;;;;;;;;5031699;28;20025;-55
2021/12/24 13:14:20;;;;;;;1.25;1.15;;;;;;;;;;5030079;28;20466;-54
2021/12/24 13:17:05;;;;;;;1.80;1.13;;;;;;;;;;5028591;28;20029;-52
2021/12/24 13:22:32;;;;;;;2.15;1.60;;;;;;;;;;5030177;28;20551;-52
2021/12/24 13:25:00;;;;;;;1.85;1.35;;;;;;;;;;5027238;28;20048;-52
2021/12/24 13:27:29;;;;;;;2.25;1.70;;;;;;;;;;5027970;28;20021;-52
2021/12/24 13:30:12;;;;;;;2.00;1.60;;;;;;;;;;5028575;28;20029;-54
2021/12/24 13:32:39;;;;;;;2.20;1.52;;;;;;;;;;5029794;28;20470;-52
2021/12/24 13:35:05;;;;;;;4.22;1.85;;;;;;;;;;5028833;28;20056;-53
2021/12/24 13:37:32;;;;;;;2.45;1.90;;;;;;;;;;5031502;28;20037;-50
2021/12/24 13:39:58;;;;;;;3.08;1.65;;;;;;;;;;5031174;28;20461;-55
2021/12/24 13:42:24;;;;;;;2.40;1.80;;;;;;;;;;5030377;28;20044;-51
2021/12/24 13:44:57;;;;;;;4.07;1.80;;;;;;;;;;5029452;28;20032;-53
2021/12/24 13:47:29;;;;;;;3.63;1.85;;;;;;;;;;5025992;28;20381;-57
2021/12/24 13:50:29;;;;;;;2.17;1.70;;;;;;;;;;5027959;28;20599;-54
2021/12/24 13:55:47;;;;;;;1.92;1.73;;;;;;;;;;5031846;28;20036;-51
2021/12/24 13:58:14;;;;;;;2.42;1.55;;;;;;;;;;5031917;28;20025;-54
2021/12/24 14:00:46;;;;;;;2.20;1.48;;;;;;;;;;5031492;28;20040;-53
2021/12/24 14:03:12;;;;;;;2.45;1.88;;;;;;;;;;5025675;28;20231;-50
2021/12/24 14:05:48;;;;;;;2.75;2.00;;;;;;;;;;5023290;28;20121;-56
2021/12/24 14:08:15;;;;;;;2.70;1.70;;;;;;;;;;5030380;28;20120;-56
2021/12/24 14:10:42;;;;;;;2.55;1.73;;;;;;;;;;5030267;28;20033;-57
2021/12/24 14:13:13;;;;;;;2.25;1.85;;;;;;;;;;5029558;28;20061;-54
2021/12/24 14:16:59;;;;;;;2.45;1.77;;;;;;;;;;5028844;28;20022;-55
2021/12/24 14:23:46;;;;;;;2.55;1.70;;;;;;;;;;5029630;28;20047;-56
2021/12/24 14:26:13;;;;;;;2.83;2.05;;;;;;;;;;5021671;28;20030;-56
2021/12/24 14:28:50;;;;;;;5.45;2.55;;;;;;;;;;5025020;28;20032;-54
2021/12/24 14:31:16;;;;;;;3.40;2.33;;;;;;;;;;5027954;28;20116;-55
2021/12/24 14:33:46;;;;;;;3.78;2.58;;;;;;;;;;5027559;28;20124;-54
2021/12/24 14:36:19;;;;;;;3.40;2.58;;;;;;;;;;5026857;28;20049;-54
2021/12/24 14:38:45;;;;;;;4.72;2.60;;;;;;;;;;5027300;28;20048;-56
2021/12/24 14:41:16;;;;;;;5.13;2.80;;;;;;;;;;5026608;28;20371;-51
2021/12/24 14:43:42;;;;;;;5.15;2.83;;;;;;;;;;5029284;28;20033;-52
2021/12/24 14:46:08;;;;;;;4.88;2.97;;;;;;;;;;5026573;28;20373;-54
2021/12/24 14:48:36;;;;;;;4.65;2.85;;;;;;;;;;5022955;28;20060;-51
2021/12/24 14:51:09;;;;;;;4.22;2.78;;;;;;;;;;5022191;28;20029;-52
2021/12/24 14:53:39;;;;;;;5.35;3.42;;;;;;;;;;5025690;28;20026;-53
2021/12/24 14:56:09;;;;;;;5.60;3.08;;;;;;;;;;5027847;28;20108;-51
2021/12/24 14:58:43;;;;;;;5.80;3.30;;;;;;;;;;5028607;28;20785;-54
2021/12/24 15:01:12;;;;;;;4.70;3.05;;;;;;;;;;5023148;28;20026;-53
2021/12/24 15:03:39;;;;;;;5.22;3.25;;;;;;;;;;5030491;28;20029;-51
2021/12/24 15:06:19;;;;;;;5.40;3.55;;;;;;;;;;5028743;28;20454;-55
2021/12/24 15:08:46;;;;;;;5.07;3.38;;;;;;;;;;5021506;28;20037;-53
2021/12/24 15:11:22;;;;;;;6.32;3.35;;;;;;;;;;5030168;28;20478;-55
2021/12/24 15:13:53;;;;;;;5.90;3.30;;;;;;;;;;5028790;28;20022;-56
2021/12/24 15:16:20;;;;;;;6.00;3.42;;;;;;;;;;5032288;28;20042;-55
2021/12/24 15:18:54;;;;;;;5.28;2.70;;;;;;;;;;5039997;28;20056;-56
2021/12/24 15:21:21;;;;;;;4.60;2.95;;;;;;;;;;5032046;28;20037;-55
2021/12/24 15:23:48;;;;;;;4.30;2.80;;;;;;;;;;5039580;28;20039;-55
2021/12/24 15:26:14;;;;;;;5.53;3.20;;;;;;;;;;5032536;28;20030;-52
2021/12/24 15:28:41;;;;;;;6.50;3.30;;;;;;;;;;5020871;28;20471;-56
2021/12/24 15:31:07;;;;;;;4.38;2.92;;;;;;;;;;5023712;28;20034;-56
2021/12/24 15:33:33;;;;;;;3.20;2.33;;;;;;;;;;5025277;28;20025;-51
2021/12/24 15:35:59;;;;;;;4.38;2.58;;;;;;;;;;5029792;28;20064;-54
2021/12/24 15:38:25;;;;;;;5.47;3.38;;;;;;;;;;5030299;28;20750;-52
2021/12/24 15:40:51;;;;;;;4.97;3.17;;;;;;;;;;5027523;28;20108;-53
2021/12/24 15:43:18;;;;;;;5.55;2.90;;;;;;;;;;5025341;28;20036;-53
2021/12/24 15:45:44;;;;;;;4.80;3.20;;;;;;;;;;5024184;28;20025;-54
2021/12/24 15:48:10;;;;;;;3.95;2.92;;;;;;;;;;5031181;28;20060;-54
2021/12/24 15:50:36;;;;;;;4.28;2.65;;;;;;;;;;5028758;28;20033;-56
2021/12/24 15:53:03;;;;;;;3.92;2.58;;;;;;;;;;5030032;28;20560;-57
2021/12/24 15:55:32;;;;;;;3.78;2.15;;;;;;;;;;5030122;28;20026;-53
2021/12/24 15:57:57;;;;;;;6.68;2.88;;;;;;;;;;5029568;28;20029;-55
2021/12/24 16:00:23;;;;;;;3.65;2.38;;;;;;;;;;5027693;28;20041;-51
2021/12/24 16:02:49;;;;;;;4.05;2.80;;;;;;;;;;5033767;28;20358;-51
2021/12/24 16:05:16;;;;;;;4.82;2.78;;;;;;;;;;5033776;28;20021;-51
2021/12/24 16:07:42;;;;;;;3.55;2.75;;;;;;;;;;5033979;28;20021;-51
2021/12/24 16:10:08;;;;;;;5.70;2.75;;;;;;;;;;5033655;28;20151;-53
2021/12/24 16:12:34;;;;;;;4.13;2.72;;;;;;;;;;5031684;28;20385;-51